createdAt,value
2022-12-13T00:04:55.068Z,8.63
2022-12-13T00:09:57.845Z,10.13
2022-12-13T00:15:00.666Z,12.07
2022-12-13T00:20:04.429Z,7.13
2022-12-13T00:25:07.466Z,10.93
2022-12-13T00:30:10.505Z,8.20
2022-12-13T05:31:40.577Z,12.03
2022-12-13T05:36:43.359Z,15.40
2022-12-13T05:41:46.119Z,9.73
2022-12-13T05:46:48.918Z,10.17
2022-12-13T05:51:51.781Z,12.97
2022-12-13T05:56:54.556Z,13.00
2022-12-13T06:01:57.394Z,9.00
2022-12-13T06:07:00.280Z,12.40
2022-12-13T06:12:03.202Z,11.37
2022-12-13T06:17:06.500Z,11.37
2022-12-13T06:22:09.312Z,15.03
2022-12-13T06:27:12.109Z,14.20
2022-12-13T06:32:14.920Z,13.13
2022-12-13T06:37:17.821Z,12.80
2022-12-13T06:42:21.756Z,12.27
2022-12-13T06:47:31.276Z,16.27
2022-12-13T06:52:35.711Z,19.20
2022-12-13T06:57:38.609Z,12.00
2022-12-13T07:02:43.850Z,16.90
2022-12-13T07:07:46.768Z,12.70
2022-12-13T07:12:49.622Z,20.47
2022-12-13T07:17:52.768Z,21.07
2022-12-13T07:22:58.716Z,14.60
2022-12-13T07:28:04.794Z,12.13
2022-12-13T07:33:07.640Z,11.80
2022-12-13T07:38:11.675Z,12.40
2022-12-13T07:43:16.075Z,15.17
2022-12-13T07:48:19.619Z,13.80
2022-12-13T07:53:22.599Z,12.37
2022-12-13T07:58:25.613Z,14.43
2022-12-13T08:03:29.770Z,13.73
2022-12-13T08:08:33.032Z,15.53
2022-12-13T08:13:36.450Z,12.67
2022-12-13T08:18:40.157Z,11.03
2022-12-13T08:23:42.972Z,13.77
2022-12-13T08:28:45.890Z,20.20
2022-12-13T08:33:49.574Z,13.47
2022-12-13T08:38:54.626Z,15.63
2022-12-13T08:43:57.426Z,11.33
2022-12-13T08:49:00.253Z,9.73
2022-12-13T08:54:10.597Z,6.23
2022-12-13T08:59:16.024Z,11.90
2022-12-13T09:04:19.024Z,8.40
2022-12-13T09:09:34.701Z,8.73
2022-12-13T09:14:45.770Z,7.00
2022-12-13T09:19:48.884Z,11.70
2022-12-13T09:24:51.838Z,7.87
2022-12-13T09:29:54.634Z,6.93
2022-12-13T09:34:57.510Z,10.47
2022-12-13T09:40:00.238Z,10.57
2022-12-13T09:45:22.155Z,11.07
2022-12-13T09:50:38.197Z,12.47
2022-12-13T09:55:48.897Z,13.77
2022-12-13T10:00:53.877Z,13.27
2022-12-13T10:06:23.364Z,19.93
2022-12-13T10:11:32.300Z,15.87
2022-12-13T10:16:36.801Z,19.70
2022-12-13T10:21:42.871Z,21.57
2022-12-13T10:26:45.960Z,18.63
2022-12-13T10:31:50.833Z,22.37
2022-12-13T10:36:54.205Z,16.77
2022-12-13T10:42:12.555Z,14.10
2022-12-13T10:47:33.440Z,14.53
2022-12-13T10:52:43.454Z,18.30
2022-12-13T10:57:52.330Z,18.20
2022-12-13T11:02:55.812Z,18.87
2022-12-13T11:08:14.206Z,14.07
2022-12-13T11:13:29.304Z,17.77
2022-12-13T11:18:37.341Z,19.47
2022-12-13T11:23:49.335Z,14.33
2022-12-13T11:29:29.858Z,14.83
2022-12-13T11:34:41.399Z,12.10
2022-12-13T11:40:06.223Z,11.00
2022-12-13T11:45:25.548Z,10.33
2022-12-13T11:50:47.571Z,9.77
2022-12-13T11:56:01.268Z,18.03
2022-12-13T12:01:19.395Z,13.03
2022-12-13T12:06:27.770Z,12.13
2022-12-13T12:11:44.691Z,13.13
2022-12-13T12:16:54.374Z,12.63
2022-12-13T12:22:35.537Z,9.17
2022-12-13T12:27:55.534Z,10.47
2022-12-13T12:33:18.041Z,15.77
2022-12-13T12:38:39.541Z,14.80
2022-12-13T12:43:43.525Z,12.17
2022-12-13T12:49:23.474Z,14.80
2022-12-13T12:55:03.592Z,10.27
2022-12-13T13:00:17.334Z,10.57
2022-12-13T13:05:26.546Z,12.77
2022-12-13T13:10:30.343Z,14.43
2022-12-13T13:15:33.115Z,11.90
2022-12-13T13:20:36.138Z,11.80
2022-12-13T13:26:00.298Z,11.30
2022-12-13T13:31:08.913Z,11.97
2022-12-13T13:36:44.956Z,12.77
2022-12-13T13:41:56.683Z,13.07
2022-12-13T13:47:20.781Z,14.13
2022-12-13T13:52:26.262Z,17.83
2022-12-13T13:58:09.811Z,20.53
2022-12-13T14:03:51.011Z,15.97
2022-12-13T14:09:14.111Z,19.93
2022-12-13T14:15:01.197Z,23.70
2022-12-13T14:20:23.071Z,19.23
2022-12-13T14:25:40.622Z,19.13
2022-12-13T14:30:56.963Z,15.37
2022-12-13T14:36:03.694Z,23.77
2022-12-13T14:41:08.535Z,21.40
2022-12-13T14:46:14.646Z,19.10
2022-12-13T14:51:31.435Z,14.50
2022-12-13T14:56:34.655Z,19.30
2022-12-13T15:01:38.607Z,15.70
2022-12-13T15:06:41.510Z,15.57
2022-12-13T15:11:51.853Z,23.50
2022-12-13T15:16:57.053Z,18.43
2022-12-13T15:22:05.269Z,15.87
2022-12-13T15:27:09.175Z,17.63
2022-12-13T15:32:16.218Z,17.50
2022-12-13T15:37:29.235Z,21.13
2022-12-13T15:42:35.789Z,18.43
2022-12-13T15:47:38.590Z,16.00
2022-12-13T15:52:42.857Z,18.67
2022-12-13T15:57:56.299Z,19.77
2022-12-13T16:03:14.448Z,20.03
2022-12-13T16:08:37.058Z,21.00
2022-12-13T16:13:39.964Z,22.67
2022-12-13T16:18:55.334Z,19.30
2022-12-13T16:23:58.115Z,15.20
2022-12-13T16:29:01.019Z,16.97
2022-12-13T16:34:05.062Z,24.57
2022-12-13T16:39:13.770Z,17.07
2022-12-13T16:44:22.820Z,16.27
2022-12-13T16:49:30.190Z,21.07
2022-12-13T16:54:33.058Z,23.40
2022-12-13T16:59:36.187Z,20.10
2022-12-13T17:04:41.605Z,16.83
2022-12-13T17:09:44.522Z,17.90
2022-12-13T17:14:47.370Z,20.33
2022-12-13T17:19:50.128Z,23.10
2022-12-13T17:24:52.854Z,18.07
2022-12-13T17:29:55.756Z,12.60
2022-12-13T17:34:58.526Z,11.43
2022-12-13T17:40:01.369Z,14.77
2022-12-13T17:45:04.520Z,22.20
2022-12-13T17:50:09.064Z,21.03
2022-12-13T17:55:17.957Z,16.83
2022-12-13T18:00:21.297Z,20.07
2022-12-13T18:05:27.416Z,21.57
2022-12-13T18:10:30.869Z,22.67
2022-12-13T18:15:35.381Z,18.93
2022-12-13T18:20:38.504Z,20.27
2022-12-13T18:25:41.981Z,15.90
2022-12-13T18:30:44.970Z,20.40
2022-12-13T18:35:47.953Z,14.93
2022-12-13T18:40:51.566Z,17.83
2022-12-13T18:45:54.652Z,20.37
2022-12-13T18:51:14.433Z,16.47
2022-12-13T18:56:19.038Z,19.53
2022-12-13T19:01:23.199Z,16.77
2022-12-13T19:06:28.299Z,19.83
2022-12-13T19:11:31.265Z,25.17
2022-12-13T19:16:34.296Z,27.40
2022-12-13T19:21:37.376Z,26.00
2022-12-13T19:26:40.723Z,18.33
2022-12-13T19:31:43.816Z,25.67
2022-12-13T19:36:46.878Z,19.10
2022-12-13T19:41:49.851Z,25.30
2022-12-13T19:46:53.450Z,25.57
2022-12-13T19:51:56.611Z,16.83
2022-12-13T19:57:05.439Z,17.77
2022-12-13T20:02:12.526Z,17.13
2022-12-13T20:07:15.530Z,15.57
2022-12-13T20:12:18.597Z,18.83
2022-12-13T20:17:21.442Z,21.83
2022-12-13T20:22:24.819Z,21.23
2022-12-13T20:27:28.015Z,17.57
2022-12-13T20:32:30.967Z,21.77
2022-12-13T20:37:33.905Z,22.00
2022-12-13T20:42:36.818Z,29.77
2022-12-13T20:47:39.768Z,19.67
2022-12-13T20:52:47.687Z,22.57
2022-12-13T20:57:53.399Z,20.00
2022-12-13T21:02:56.236Z,23.30
2022-12-13T21:08:17.746Z,33.20
2022-12-13T21:13:20.547Z,20.77
2022-12-13T21:18:26.000Z,21.23
2022-12-13T21:23:30.288Z,30.47
2022-12-13T21:28:33.174Z,28.63
2022-12-13T21:33:41.989Z,28.50
2022-12-13T21:38:44.937Z,17.13
2022-12-13T21:43:48.317Z,22.67
2022-12-13T21:48:54.236Z,28.83
2022-12-13T21:53:58.115Z,23.77
2022-12-13T21:59:15.877Z,35.50
2022-12-13T22:04:19.983Z,41.87
2022-12-13T22:09:22.835Z,54.97
2022-12-13T22:14:25.939Z,55.87
2022-12-13T22:19:28.789Z,37.33
2022-12-13T22:24:31.667Z,33.27
2022-12-13T22:29:34.907Z,37.37
2022-12-13T22:34:37.722Z,32.43
2022-12-13T22:39:40.515Z,25.47
2022-12-13T22:44:43.494Z,24.10
2022-12-13T22:49:48.789Z,28.83
2022-12-13T22:54:51.999Z,41.27
2022-12-13T22:59:54.779Z,44.07
2022-12-13T23:04:57.488Z,52.17
2022-12-13T23:10:00.796Z,36.60
2022-12-13T23:15:04.176Z,28.20
2022-12-13T23:20:07.812Z,49.10
2022-12-13T23:25:10.657Z,35.73
2022-12-13T23:30:13.985Z,33.43
2022-12-13T23:35:16.764Z,39.70
2022-12-13T23:40:19.510Z,39.53
2022-12-13T23:45:23.578Z,39.13
2022-12-13T23:50:26.371Z,43.00
2022-12-13T23:55:29.115Z,41.07
